Time;durP1;ratioP1;P1;durP2;ratioP2;P2;SDS_P1;SDS_P2;PMS_P1;PMS_P2;Temp;Humidity;BMP_temperature;BMP_pressure;BME280_temperature;BME280_humidity;BME280_pressure;Samples;Min_cycle;Max_cycle;Signal;HPM_P1;HPM_P2
2022/10/26 00:01:14;;;;;;;21.08;11.95;;;;;;;8.75;100.00;101383.59;5036164;28;20052;-79
2022/10/26 00:03:42;;;;;;;16.83;11.80;;;;;;;8.81;100.00;101385.03;5036048;28;20061;-77
2022/10/26 00:06:10;;;;;;;18.83;12.13;;;;;;;8.90;100.00;101395.75;5035878;28;20048;-77
2022/10/26 00:08:36;;;;;;;19.20;11.80;;;;;;;8.95;100.00;101394.69;5017898;28;20058;-77
2022/10/26 00:11:02;;;;;;;17.80;11.80;;;;;;;8.98;100.00;101392.81;5035833;28;20108;-77
2022/10/26 00:13:27;;;;;;;19.38;10.60;;;;;;;9.03;100.00;101392.59;5035697;28;20029;-77
2022/10/26 00:15:53;;;;;;;14.70;10.25;;;;;;;9.07;100.00;101387.22;5017924;28;20042;-77
2022/10/26 00:18:19;;;;;;;16.08;10.68;;;;;;;9.10;100.00;101381.91;5035683;28;20104;-78
2022/10/26 00:20:44;;;;;;;15.90;10.15;;;;;;;9.14;100.00;101375.72;5035568;28;20438;-77
2022/10/26 00:23:09;;;;;;;17.55;10.82;;;;;;;9.19;100.00;101366.03;5035568;28;20065;-77
2022/10/26 00:25:34;;;;;;;16.85;10.43;;;;;;;9.17;100.00;101352.38;5035500;28;20025;-77
2022/10/26 00:28:00;;;;;;;22.13;10.70;;;;;;;9.29;100.00;101361.25;5035559;28;20137;-77
2022/10/26 00:30:25;;;;;;;19.75;10.57;;;;;;;9.29;100.00;101353.53;5035157;28;20021;-76
2022/10/26 00:32:51;;;;;;;18.40;10.90;;;;;;;9.33;100.00;101354.19;5035395;28;20052;-77
2022/10/26 00:35:16;;;;;;;14.80;9.40;;;;;;;9.39;100.00;101352.16;5035379;28;20025;-78
2022/10/26 00:37:42;;;;;;;16.52;9.82;;;;;;;9.34;100.00;101343.84;5035307;28;20067;-77
2022/10/26 00:40:08;;;;;;;18.42;10.27;;;;;;;9.44;100.00;101363.09;5035577;28;20028;-78
2022/10/26 00:42:33;;;;;;;15.05;9.60;;;;;;;9.49;100.00;101350.78;5035358;28;20029;-77
2022/10/26 00:45:03;;;;;;;15.23;9.18;;;;;;;9.52;100.00;101349.78;5035189;28;20055;-78
2022/10/26 00:47:31;;;;;;;17.27;9.65;;;;;;;9.54;100.00;101339.41;5034923;28;20032;-79
2022/10/26 00:50:01;;;;;;;17.83;9.70;;;;;;;9.51;100.00;101319.78;5034967;28;20078;-79
2022/10/26 00:52:28;;;;;;;15.82;10.02;;;;;;;9.47;100.00;101315.69;5034955;28;20094;-78
2022/10/26 00:54:53;;;;;;;16.38;9.55;;;;;;;9.61;100.00;101340.75;5017647;28;20416;-78
2022/10/26 00:57:19;;;;;;;15.85;8.80;;;;;;;9.65;100.00;101355.19;5034976;28;20024;-79
2022/10/26 00:59:45;;;;;;;18.30;9.70;;;;;;;9.58;100.00;101338.34;5034790;28;20115;-79
2022/10/26 01:02:11;;;;;;;18.42;10.35;;;;;;;9.68;100.00;101353.28;5016168;28;20516;-78
2022/10/26 01:04:37;;;;;;;23.40;10.77;;;;;;;9.73;100.00;101353.03;5034928;28;20109;-78
2022/10/26 01:07:04;;;;;;;18.90;10.10;;;;;;;9.67;100.00;101343.88;5034552;28;20049;-79
2022/10/26 01:09:31;;;;;;;18.80;10.60;;;;;;;9.77;100.00;101355.38;5034721;28;20031;-78
2022/10/26 01:11:56;;;;;;;17.98;10.00;;;;;;;9.79;100.00;101350.16;5034705;28;20025;-78
2022/10/26 01:14:23;;;;;;;18.25;9.75;;;;;;;9.81;100.00;101348.31;5034329;28;20159;-79
2022/10/26 01:17:07;;;;;;;18.42;10.68;;;;;;;9.83;100.00;101336.16;5034194;28;20032;-78
2022/10/26 01:19:59;;;;;;;17.75;9.60;;;;;;;9.87;100.00;101329.13;5034384;28;20025;-79
2022/10/26 01:22:55;;;;;;;17.25;9.57;;;;;;;9.89;100.00;101322.13;5034426;28;20025;-79
2022/10/26 01:25:51;;;;;;;17.15;9.60;;;;;;;9.90;100.00;101323.78;5033016;28;20046;-79
2022/10/26 01:28:48;;;;;;;16.30;9.70;;;;;;;9.90;100.00;101318.63;5034396;28;20457;-79
2022/10/26 01:31:19;;;;;;;20.63;10.35;;;;;;;9.89;100.00;101320.38;5034152;28;20032;-79
2022/10/26 01:33:54;;;;;;;17.90;10.68;;;;;;;9.80;100.00;101299.41;5034332;28;20021;-78
2022/10/26 01:36:47;;;;;;;17.42;9.77;;;;;;;9.90;100.00;101313.47;5034032;28;20044;-79
2022/10/26 01:39:28;;;;;;;16.50;9.90;;;;;;;9.71;100.00;101295.53;5016342;28;20033;-79
2022/10/26 01:41:59;;;;;;;18.30;9.93;;;;;;;9.89;100.00;101307.47;5034286;28;20013;-79
2022/10/26 01:44:29;;;;;;;17.83;10.23;;;;;;;9.72;100.00;101279.16;5034101;28;20025;-76
2022/10/26 01:46:58;;;;;;;14.47;9.37;;;;;;;9.88;100.00;101308.41;5033793;28;20026;-77
2022/10/26 01:49:32;;;;;;;21.70;10.32;;;;;;;9.92;100.00;101301.31;5034159;28;20136;-79
2022/10/26 01:51:57;;;;;;;21.02;10.98;;;;;;;9.93;100.00;101303.84;5034421;28;20029;-79
2022/10/26 01:54:23;;;;;;;16.85;10.05;;;;;;;9.78;100.00;101269.34;5016201;28;20025;-79
2022/10/26 01:56:56;;;;;;;15.88;9.27;;;;;;;9.92;100.00;101291.00;5033800;28;20026;-79
2022/10/26 01:59:25;;;;;;;18.27;9.57;;;;;;;9.98;100.00;101295.84;5033865;28;20519;-77
2022/10/26 02:02:27;;;;;;;18.48;9.98;;;;;;;9.97;100.00;101291.59;5033728;28;20026;-78
2022/10/26 02:05:11;;;;;;;;;;;;;;;9.97;100.00;101287.28;5034236;28;20030;-79
2022/10/26 02:07:53;;;;;;;19.13;9.43;;;;;;;9.93;100.00;101279.78;5033744;28;19952;-78
2022/10/26 02:10:31;;;;;;;19.63;9.43;;;;;;;9.78;100.00;101259.03;5034019;28;20053;-77
2022/10/26 02:13:14;;;;;;;14.38;9.15;;;;;;;9.87;100.00;101282.69;5014660;28;20056;-76
2022/10/26 02:15:51;;;;;;;15.18;8.93;;;;;;;9.75;100.00;101276.44;5033582;28;20021;-77
2022/10/26 02:18:29;;;;;;;16.52;9.10;;;;;;;9.76;100.00;101291.81;5033567;28;20030;-78
2022/10/26 02:21:05;;;;;;;16.48;9.82;;;;;;;9.70;100.00;101291.31;5033514;28;20021;-79
2022/10/26 02:23:34;;;;;;;19.98;9.80;;;;;;;9.59;100.00;101284.13;5033535;28;20485;-79
2022/10/26 02:26:02;;;;;;;16.23;9.13;;;;;;;9.54;100.00;101280.09;5015498;28;20038;-80
2022/10/26 02:28:35;;;;;;;13.93;9.10;;;;;;;9.44;100.00;101275.44;5033437;28;20036;-77
2022/10/26 02:31:03;;;;;;;18.98;9.98;;;;;;;9.24;100.00;101251.56;5033212;28;20033;-79
2022/10/26 02:33:32;;;;;;;16.25;9.95;;;;;;;9.44;100.00;101282.34;5033460;28;20022;-79
2022/10/26 02:36:01;;;;;;;16.85;9.50;;;;;;;9.42;100.00;101273.84;5033439;28;20025;-79
2022/10/26 02:38:29;;;;;;;18.95;10.40;;;;;;;9.45;100.00;101276.28;5033441;28;20104;-78
2022/10/26 02:40:55;;;;;;;18.83;10.55;;;;;;;9.34;100.00;101253.63;5033238;28;20451;-77
2022/10/26 02:43:23;;;;;;;17.90;9.75;;;;;;;9.38;100.00;101252.53;5033366;28;20029;-78
2022/10/26 02:46:02;;;;;;;18.45;9.63;;;;;;;9.51;100.00;101259.66;5033026;28;20029;-79
2022/10/26 02:48:28;;;;;;;18.42;9.30;;;;;;;9.51;100.00;101255.31;5033039;28;20121;-78
2022/10/26 02:51:05;;;;;;;14.13;9.70;;;;;;;9.54;100.00;101251.75;5033329;28;20049;-77
2022/10/26 02:53:36;;;;;;;19.52;9.52;;;;;;;9.62;100.00;101252.19;5033244;28;20025;-77
2022/10/26 02:56:09;;;;;;;18.33;9.27;;;;;;;9.48;100.00;101229.72;5033011;28;20478;-80
2022/10/26 02:58:40;;;;;;;17.10;9.88;;;;;;;9.65;100.00;101250.28;5015326;28;20433;-80
2022/10/26 03:01:06;;;;;;;18.65;10.48;;;;;;;9.61;100.00;101246.19;5033001;28;20037;-78
2022/10/26 03:03:32;;;;;;;19.17;10.48;;;;;;;9.67;100.00;101251.03;5032777;28;20381;-78
2022/10/26 03:05:57;;;;;;;18.08;10.43;;;;;;;9.69;100.00;101249.22;5032962;28;20037;-75
2022/10/26 03:08:22;;;;;;;19.20;10.93;;;;;;;9.72;100.00;101248.22;5032643;28;20053;-80
2022/10/26 03:10:48;;;;;;;20.52;10.10;;;;;;;9.42;100.00;101201.66;5032987;28;20240;-79
2022/10/26 03:13:13;;;;;;;18.55;10.88;;;;;;;9.71;100.00;101249.13;5032713;28;20483;-80
2022/10/26 03:15:39;;;;;;;17.65;10.57;;;;;;;9.39;100.00;101197.50;5032883;28;20108;-79
2022/10/26 03:18:05;;;;;;;19.02;10.90;;;;;;;9.62;100.00;101228.97;5032729;28;20393;-79
2022/10/26 03:20:30;;;;;;;17.52;10.48;;;;;;;9.71;100.00;101251.69;5032849;28;20022;-80
2022/10/26 03:22:56;;;;;;;20.17;11.10;;;;;;;9.71;100.00;101254.28;5032461;28;20179;-79
2022/10/26 03:25:25;;;;;;;17.83;10.70;;;;;;;9.67;100.00;101239.91;5035448;28;20029;-80
2022/10/26 03:28:01;;;;;;;17.08;10.15;;;;;;;9.65;100.00;101239.16;5036594;28;20036;-79
2022/10/26 03:30:27;;;;;;;23.90;11.52;;;;;;;9.61;100.00;101229.88;5018946;28;20072;-80
2022/10/26 03:32:53;;;;;;;18.63;10.77;;;;;;;9.74;100.00;101254.97;5036663;28;20414;-80
2022/10/26 03:35:18;;;;;;;18.33;10.23;;;;;;;9.77;100.00;101246.22;5036480;28;20040;-76
2022/10/26 03:37:44;;;;;;;22.20;10.57;;;;;;;9.81;100.00;101250.31;5037089;28;20025;-79
2022/10/26 03:40:10;;;;;;;16.95;9.48;;;;;;;9.72;100.00;101233.56;5036572;28;20026;-79
2022/10/26 03:42:35;;;;;;;17.25;9.35;;;;;;;9.79;100.00;101236.66;5036402;28;20033;-79
2022/10/26 03:45:01;;;;;;;14.82;9.40;;;;;;;9.84;100.00;101236.44;5036544;28;20112;-79
2022/10/26 03:47:26;;;;;;;15.55;9.18;;;;;;;9.78;100.00;101227.25;5036273;28;20028;-79
2022/10/26 03:49:51;;;;;;;15.40;8.65;;;;;;;9.77;100.00;101223.84;5018438;28;20033;-79
2022/10/26 03:52:17;;;;;;;13.88;8.35;;;;;;;9.69;100.00;101212.28;5018194;28;20042;-79
2022/10/26 03:54:42;;;;;;;17.95;8.98;;;;;;;9.89;100.00;101243.00;5036218;28;20025;-78
2022/10/26 03:57:07;;;;;;;16.17;8.43;;;;;;;9.90;100.00;101246.41;5036128;28;20326;-79
2022/10/26 03:59:32;;;;;;;15.82;9.15;;;;;;;9.82;100.00;101225.34;5036129;28;20022;-80
2022/10/26 04:01:58;;;;;;;19.45;8.57;;;;;;;9.85;100.00;101233.78;5036057;28;20099;-77
2022/10/26 04:04:23;;;;;;;15.80;8.77;;;;;;;9.83;100.00;101230.41;5035819;28;20065;-79
2022/10/26 04:06:49;;;;;;;15.80;8.30;;;;;;;9.73;100.00;101222.38;5035893;28;20481;-79
2022/10/26 04:09:14;;;;;;;14.27;7.68;;;;;;;9.83;100.00;101237.31;5035993;28;20537;-79
2022/10/26 04:11:39;;;;;;;16.02;7.70;;;;;;;9.80;100.00;101238.31;5035921;28;20040;-79
2022/10/26 04:14:05;;;;;;;14.32;7.55;;;;;;;9.76;100.00;101240.25;5035847;28;20036;-79
2022/10/26 04:16:30;;;;;;;14.70;7.85;;;;;;;9.67;100.00;101235.56;5036191;28;20424;-77
2022/10/26 04:18:55;;;;;;;15.32;7.82;;;;;;;9.75;100.00;101240.31;5035671;28;20110;-78
2022/10/26 04:21:20;;;;;;;13.77;7.55;;;;;;;9.76;100.00;101245.41;5035883;28;20034;-78
2022/10/26 04:23:46;;;;;;;14.10;7.68;;;;;;;9.78;100.00;101246.16;5035974;28;20032;-79
2022/10/26 04:26:11;;;;;;;12.93;7.55;;;;;;;9.69;100.00;101226.00;5035799;28;20068;-80
2022/10/26 04:28:36;;;;;;;13.75;8.50;;;;;;;9.58;100.00;101205.09;5035738;28;20377;-80
2022/10/26 04:31:02;;;;;;;14.43;7.57;;;;;;;9.81;100.00;101234.81;5035463;28;20033;-78
2022/10/26 04:33:27;;;;;;;15.05;8.15;;;;;;;9.81;100.00;101234.81;5035158;28;20097;-78
2022/10/26 04:35:57;;;;;;;13.82;7.15;;;;;;;9.77;100.00;101225.59;5034718;28;20025;-78
2022/10/26 04:38:23;;;;;;;15.27;7.97;;;;;;;9.74;100.00;101213.72;5035476;28;20029;-78
2022/10/26 04:40:50;;;;;;;13.57;7.53;;;;;;;9.82;100.00;101227.91;5017706;28;20293;-78
2022/10/26 04:43:15;;;;;;;14.63;7.38;;;;;;;9.69;100.00;101191.66;5035300;28;20446;-77
2022/10/26 04:45:40;;;;;;;13.10;7.35;;;;;;;9.91;100.00;101224.84;5035340;28;20040;-79
2022/10/26 04:48:10;;;;;;;15.93;7.65;;;;;;;9.97;100.00;101230.53;5035251;28;20025;-79
2022/10/26 04:50:36;;;;;;;15.35;7.57;;;;;;;9.89;100.00;101213.78;5035137;28;20033;-78
2022/10/26 04:53:01;;;;;;;14.75;7.75;;;;;;;10.02;100.00;101225.94;5035336;28;20097;-78
2022/10/26 04:55:27;;;;;;;16.83;7.70;;;;;;;10.00;100.00;101219.19;5035147;28;20033;-78
2022/10/26 04:57:52;;;;;;;15.68;7.78;;;;;;;9.99;100.00;101209.78;5034986;28;20039;-78
2022/10/26 05:00:17;;;;;;;13.68;8.18;;;;;;;9.99;100.00;101209.78;5035038;28;20477;-78
2022/10/26 05:02:43;;;;;;;18.73;8.57;;;;;;;9.86;100.00;101183.00;5035089;28;20057;-77
2022/10/26 05:05:08;;;;;;;14.55;8.30;;;;;;;10.16;100.00;101232.09;5034987;28;20046;-78
2022/10/26 05:07:33;;;;;;;15.07;9.18;;;;;;;10.19;100.00;101232.75;5034929;28;20198;-78
2022/10/26 05:09:59;;;;;;;14.65;8.27;;;;;;;10.06;100.00;101204.22;5017213;28;20052;-78
2022/10/26 05:12:24;;;;;;;14.98;7.90;;;;;;;10.22;100.00;101231.78;5034816;28;20387;-78
2022/10/26 05:14:49;;;;;;;16.17;8.27;;;;;;;10.05;100.00;101192.25;5034451;28;20144;-77
2022/10/26 05:17:15;;;;;;;16.30;8.07;;;;;;;10.30;100.00;101237.38;5034621;28;20029;-77
2022/10/26 05:19:40;;;;;;;14.73;7.82;;;;;;;10.27;100.00;101229.78;5034502;28;20029;-78
2022/10/26 05:22:06;;;;;;;17.48;8.48;;;;;;;10.22;100.00;101216.28;5035059;28;20036;-78
2022/10/26 05:24:31;;;;;;;14.82;8.00;;;;;;;10.30;100.00;101230.44;5034679;28;20026;-77
2022/10/26 05:26:56;;;;;;;14.02;8.57;;;;;;;10.32;100.00;101238.09;5034528;28;20060;-78
2022/10/26 05:29:22;;;;;;;15.75;8.70;;;;;;;10.19;100.00;101224.19;5034582;28;20469;-77
2022/10/26 05:31:47;;;;;;;13.07;7.88;;;;;;;10.21;100.00;101227.50;5034496;28;20030;-78
2022/10/26 05:34:12;;;;;;;13.52;8.40;;;;;;;10.14;100.00;101226.22;5034508;28;20025;-79
2022/10/26 05:36:37;;;;;;;14.80;7.38;;;;;;;10.22;100.00;101244.69;5034670;28;20025;-78
2022/10/26 05:39:03;;;;;;;15.77;8.20;;;;;;;10.19;100.00;101243.09;5034440;28;20033;-78
2022/10/26 05:41:28;;;;;;;14.05;7.70;;;;;;;10.16;100.00;101245.00;5034225;28;20025;-78
2022/10/26 05:43:53;;;;;;;15.10;8.35;;;;;;;9.89;100.00;101204.31;5034268;28;20053;-78
2022/10/26 05:46:19;;;;;;;16.92;7.78;;;;;;;10.09;100.00;101239.34;5034020;28;20080;-77
2022/10/26 05:48:44;;;;;;;20.20;8.50;;;;;;;10.05;100.00;101243.00;5033999;28;20462;-78
2022/10/26 05:51:11;;;;;;;17.60;8.27;;;;;;;10.06;100.00;101247.25;5033905;28;20059;-78
2022/10/26 05:53:36;;;;;;;16.38;8.65;;;;;;;9.97;100.00;101230.53;5034072;28;20045;-77
2022/10/26 05:56:10;;;;;;;16.55;8.82;;;;;;;10.12;100.00;101251.25;5016152;28;20449;-76
2022/10/26 05:58:38;;;;;;;16.60;8.10;;;;;;;10.09;100.00;101243.66;5033949;28;20029;-77
2022/10/26 06:01:31;;;;;;;20.13;8.75;;;;;;;9.97;100.00;101216.78;5033736;28;20465;-77
2022/10/26 06:04:46;;;;;;;20.40;9.05;;;;;;;10.22;100.00;101257.59;5033761;28;20032;-78
2022/10/26 06:07:14;;;;;;;16.42;8.57;;;;;;;10.25;100.00;101254.88;4934333;29;20389;-77
2022/10/26 06:09:41;;;;;;;17.20;9.07;;;;;;;10.27;100.00;101269.34;4934335;29;20452;-77
2022/10/26 06:12:08;;;;;;;19.25;8.45;;;;;;;10.29;100.00;101264.94;4934368;29;20044;-77
2022/10/26 06:14:34;;;;;;;18.17;8.82;;;;;;;10.34;100.00;101268.09;4934268;29;20524;-78
2022/10/26 06:20:03;;;;;;;15.50;9.18;;;;;;;10.39;100.00;101264.41;5040202;22;20053;-77
2022/10/26 06:22:47;;;;;;;18.83;9.05;;;;;;;10.44;100.00;101268.44;5033493;28;20025;-77
2022/10/26 06:25:32;;;;;;;18.20;8.95;;;;;;;10.45;100.00;101271.84;5033363;28;20044;-77
2022/10/26 06:28:03;;;;;;;17.50;8.45;;;;;;;10.49;100.00;101275.91;5033316;28;20076;-77
2022/10/26 06:30:29;;;;;;;20.08;9.23;;;;;;;10.50;100.00;101269.81;5033434;28;20091;-77
2022/10/26 06:32:55;;;;;;;21.88;8.93;;;;;;;10.43;100.00;101264.19;5033458;28;20029;-77
2022/10/26 06:35:35;;;;;;;16.02;8.30;;;;;;;10.50;100.00;101269.81;5033248;28;20053;-76
2022/10/26 06:38:06;;;;;;;19.98;9.05;;;;;;;10.47;100.00;101270.84;5033058;28;20030;-77
2022/10/26 06:40:35;;;;;;;17.52;8.38;;;;;;;10.47;100.00;101264.84;5033457;28;20030;-77
2022/10/26 06:43:01;;;;;;;16.73;9.43;;;;;;;10.27;100.00;101243.53;5033087;28;20021;-79
2022/10/26 06:45:27;;;;;;;16.13;9.07;;;;;;;10.33;100.00;101255.28;5033059;28;20028;-78
2022/10/26 06:47:55;;;;;;;17.90;8.88;;;;;;;10.40;100.00;101260.91;5033010;28;20029;-79
2022/10/26 06:50:41;;;;;;;17.35;8.45;;;;;;;10.40;100.00;101260.91;5033083;28;20025;-76
2022/10/26 06:53:30;;;;;;;17.75;8.82;;;;;;;10.44;100.00;101262.44;5032890;28;20038;-77
2022/10/26 06:55:59;;;;;;;18.05;8.98;;;;;;;10.40;100.00;101254.00;5033235;28;20430;-80
2022/10/26 06:58:29;;;;;;;17.15;9.00;;;;;;;10.49;100.00;101245.75;5033057;28;20477;-76
2022/10/26 07:00:55;;;;;;;19.70;9.20;;;;;;;10.56;100.00;101252.25;5032946;28;20022;-76
2022/10/26 07:03:21;;;;;;;16.83;9.00;;;;;;;10.57;100.00;101251.31;5031312;28;20040;-76
2022/10/26 07:05:49;;;;;;;19.67;9.25;;;;;;;10.51;100.00;101245.66;5032908;28;20477;-78
2022/10/26 07:08:15;;;;;;;17.60;9.23;;;;;;;10.61;100.00;101255.38;5015113;28;20456;-79
2022/10/26 07:10:41;;;;;;;17.40;8.18;;;;;;;10.64;100.00;101257.00;5032993;28;20025;-79
2022/10/26 07:13:08;;;;;;;14.77;8.13;;;;;;;10.50;100.00;101233.66;5032984;28;20017;-76
2022/10/26 07:15:34;;;;;;;14.65;7.78;;;;;;;10.52;100.00;101244.75;5032700;28;20033;-77
2022/10/26 07:18:02;;;;;;;19.20;8.43;;;;;;;10.63;100.00;101269.06;5032754;28;20045;-78
2022/10/26 07:20:27;;;;;;;18.80;8.05;;;;;;;10.51;100.00;101259.41;5032699;28;20091;-75
2022/10/26 07:22:56;;;;;;;14.73;8.38;;;;;;;10.66;100.00;101282.72;5032206;28;20022;-78
2022/10/26 07:25:23;;;;;;;19.35;9.10;;;;;;;10.67;100.00;101281.81;5032914;28;20060;-77
2022/10/26 07:27:48;;;;;;;19.00;8.45;;;;;;;10.74;100.00;101290.88;5032489;28;20083;-79
2022/10/26 07:30:14;;;;;;;15.60;8.88;;;;;;;10.70;100.00;101281.63;5032746;28;20021;-79
2022/10/26 07:32:40;;;;;;;21.27;9.18;;;;;;;10.84;100.00;101300.59;5032571;28;20539;-77
2022/10/26 07:35:05;;;;;;;15.13;8.27;;;;;;;10.87;100.00;101300.44;5032685;28;20026;-76
2022/10/26 07:37:31;;;;;;;19.35;10.27;;;;;;;10.92;100.00;101307.94;5032354;28;20057;-76
2022/10/26 07:39:56;;;;;;;20.52;10.32;;;;;;;10.91;100.00;101294.19;5032367;28;20025;-76
2022/10/26 07:42:21;;;;;;;20.10;9.90;;;;;;;10.97;100.00;101294.75;5032663;28;20037;-79
2022/10/26 07:44:47;;;;;;;18.88;10.65;;;;;;;11.00;100.00;101291.97;5032602;28;20104;-78
2022/10/26 07:47:12;;;;;;;17.60;10.60;;;;;;;11.10;100.00;101306.03;5032465;28;20448;-78
2022/10/26 07:49:38;;;;;;;19.77;10.52;;;;;;;11.12;100.00;101306.78;5032433;28;20028;-79
2022/10/26 07:52:04;;;;;;;17.52;10.13;;;;;;;10.97;100.00;101285.22;5032229;28;20428;-79
2022/10/26 07:54:30;;;;;;;17.80;9.38;;;;;;;11.11;100.00;101298.22;5032281;28;20028;-79
2022/10/26 07:56:55;;;;;;;25.05;11.20;;;;;;;11.42;100.00;101335.22;5032242;28;20022;-78
2022/10/26 07:59:20;;;;;;;16.00;8.73;;;;;;;11.58;100.00;101325.59;5032634;28;20029;-79
2022/10/26 08:01:46;;;;;;;17.67;8.82;;;;;;;11.86;100.00;101334.34;5014880;28;20124;-79
2022/10/26 08:04:11;;;;;;;13.70;7.35;;;;;;;11.97;100.00;101326.75;5032424;28;20038;-78
2022/10/26 08:06:37;;;;;;;14.23;7.10;;;;;;;12.04;100.00;101328.91;5032447;28;20029;-77
2022/10/26 08:09:02;;;;;;;16.98;7.18;;;;;;;12.08;100.00;101329.53;5032164;28;20485;-78
2022/10/26 08:11:28;;;;;;;16.90;7.47;;;;;;;12.21;100.00;101340.81;5033295;28;20029;-77
2022/10/26 08:13:54;;;;;;;14.48;7.50;;;;;;;12.38;100.00;101337.16;5035800;28;20037;-78
2022/10/26 08:16:20;;;;;;;11.77;7.32;;;;;;;12.56;100.00;101345.53;5035589;28;20036;-78
2022/10/26 08:18:52;;;;;;;13.63;7.10;;;;;;;12.53;100.00;101315.47;5035629;28;20049;-79
2022/10/26 08:21:17;;;;;;;16.88;7.22;;;;;;;12.86;100.00;101338.41;5035991;28;20060;-80
2022/10/26 08:23:43;;;;;;;14.48;7.03;;;;;;;13.01;100.00;101326.22;5035514;28;20497;-79
2022/10/26 08:26:10;;;;;;;16.48;6.68;;;;;;;13.24;100.00;101342.06;5035835;28;20778;-79
2022/10/26 08:28:36;;;;;;;13.30;6.65;;;;;;;13.22;100.00;101346.53;5035826;28;20033;-79
2022/10/26 08:31:02;;;;;;;16.38;5.82;;;;;;;13.16;100.00;101345.94;5035571;28;20079;-80
2022/10/26 08:33:27;;;;;;;11.50;5.82;;;;;;;13.14;100.00;101347.00;5035613;28;20033;-80
2022/10/26 08:36:01;;;;;;;12.07;5.82;;;;;;;13.03;100.00;101339.91;5035637;28;20025;-79
2022/10/26 08:38:27;;;;;;;12.48;5.35;;;;;;;13.12;100.00;101357.47;5035388;28;20061;-80
2022/10/26 08:40:55;;;;;;;12.02;5.13;;;;;;;13.13;100.00;101359.13;5017560;28;20548;-80
2022/10/26 08:43:36;;;;;;;11.13;4.93;;;;;;;13.14;100.00;101358.19;5035629;28;20100;-79
2022/10/26 08:46:10;;;;;;;14.38;5.30;;;;;;;12.90;100.00;101305.34;5035285;28;20111;-80
2022/10/26 08:48:39;;;;;;;9.20;4.68;;;;;;;13.28;100.00;101362.53;5035264;28;20108;-79
2022/10/26 08:51:36;;;;;;;15.75;5.03;;;;;;;13.27;100.00;101360.00;5035280;28;20081;-79
2022/10/26 08:54:15;;;;;;;13.75;5.15;;;;;;;13.35;100.00;101355.97;5034064;28;20040;-80
2022/10/26 08:56:51;;;;;;;10.45;5.22;;;;;;;13.41;100.00;101357.34;5035181;28;20366;-79
2022/10/26 08:59:29;;;;;;;10.88;5.13;;;;;;;13.46;100.00;101343.13;5035037;28;20032;-77
2022/10/26 09:01:55;;;;;;;12.55;4.70;;;;;;;13.59;100.00;101352.69;5035063;28;20088;-80
2022/10/26 09:04:26;;;;;;;9.65;5.28;;;;;;;13.37;100.00;101289.28;5035248;28;20033;-80
2022/10/26 09:07:06;;;;;;;11.68;5.13;;;;;;;13.72;100.00;101333.59;5034930;28;20045;-79
2022/10/26 09:09:46;;;;;;;12.07;4.85;;;;;;;13.73;100.00;101321.44;5034919;28;20083;-78
2022/10/26 09:12:33;;;;;;;10.63;4.95;;;;;;;13.82;100.00;101339.00;5034637;28;20040;-79
2022/10/26 09:15:11;;;;;;;13.48;5.10;;;;;;;13.89;100.00;101350.63;5035129;28;20021;-79
2022/10/26 09:17:56;;;;;;;13.13;5.45;;;;;;;13.91;100.00;101353.09;5034530;28;20065;-79
2022/10/26 09:20:33;;;;;;;14.73;5.80;;;;;;;14.03;100.00;101360.88;5034642;28;20029;-78
2022/10/26 09:23:20;;;;;;;9.05;5.20;;;;;;;14.18;100.00;101371.16;5034155;28;20033;-79
2022/10/26 09:25:56;;;;;;;13.80;5.10;;;;;;;14.27;100.00;101375.72;5034375;28;20104;-78
2022/10/26 09:28:22;;;;;;;10.50;4.97;;;;;;;14.26;100.00;101369.69;5034288;28;20091;-79
2022/10/26 09:30:47;;;;;;;13.98;4.72;;;;;;;14.41;100.00;101383.38;5034530;28;20461;-78
2022/10/26 09:33:20;;;;;;;10.80;4.80;;;;;;;14.44;100.00;101377.94;5034334;28;20218;-79
2022/10/26 09:36:02;;;;;;;9.57;4.65;;;;;;;14.69;100.00;101387.47;5016823;28;20032;-78
2022/10/26 09:38:29;;;;;;;11.73;4.65;;;;;;;14.86;100.00;101400.09;5034069;28;20028;-80
2022/10/26 09:41:07;;;;;;;11.80;4.93;;;;;;;15.02;100.00;101409.38;5034307;28;20072;-78
2022/10/26 09:43:59;;;;;;;10.30;4.60;;;;;;;15.16;100.00;101411.84;5034136;28;20395;-79
2022/10/26 09:46:33;;;;;;;12.98;5.07;;;;;;;15.16;100.00;101389.25;5034269;28;20033;-79
2022/10/26 09:49:04;;;;;;;14.50;5.40;;;;;;;15.27;99.13;101398.88;5033882;28;20546;-79
2022/10/26 09:51:29;;;;;;;12.07;4.47;;;;;;;15.36;99.47;101403.41;5034056;28;20489;-79
2022/10/26 09:53:59;;;;;;;14.20;4.45;;;;;;;15.50;99.33;101412.78;5033862;28;20315;-79
2022/10/26 09:56:26;;;;;;;12.77;4.40;;;;;;;15.54;99.28;101409.00;5033602;28;20023;-78
2022/10/26 09:58:58;;;;;;;10.45;4.15;;;;;;;15.61;99.00;101427.63;5033998;28;20033;-79
2022/10/26 10:01:31;;;;;;;13.98;5.13;;;;;;;15.63;98.17;101425.72;5033981;28;20504;-78
2022/10/26 10:04:12;;;;;;;11.63;4.68;;;;;;;15.68;98.18;101423.63;5016271;28;20389;-79
2022/10/26 10:06:41;;;;;;;10.15;4.60;;;;;;;15.53;97.59;101396.09;5033961;28;20485;-79
2022/10/26 10:09:14;;;;;;;11.73;4.72;;;;;;;15.59;98.26;101421.69;5033533;28;20040;-78
2022/10/26 10:12:02;;;;;;;9.50;4.22;;;;;;;15.73;98.58;101445.78;5033899;28;20025;-76
2022/10/26 10:14:27;;;;;;;11.02;4.40;;;;;;;15.73;99.21;101440.56;5033241;28;20037;-76
2022/10/26 10:16:56;;;;;;;13.23;4.22;;;;;;;15.74;98.61;101454.44;5033533;28;20032;-77
2022/10/26 10:19:32;;;;;;;8.15;4.18;;;;;;;15.66;97.99;101446.34;5033258;28;20497;-78
2022/10/26 10:22:00;;;;;;;8.38;4.00;;;;;;;15.73;98.78;101458.81;5033423;28;20060;-80
2022/10/26 10:24:31;;;;;;;11.68;4.13;;;;;;;15.82;98.60;101472.88;5033128;28;20021;-83
2022/10/26 10:27:15;;;;;;;13.90;4.68;;;;;;;15.83;98.58;101473.72;5033138;28;20033;-81
2022/10/26 10:29:43;;;;;;;11.32;3.97;;;;;;;15.90;98.30;101477.53;5033213;28;20470;-82
2022/10/26 10:32:21;;;;;;;11.18;3.80;;;;;;;15.92;97.75;101480.84;5033374;28;20025;-80
2022/10/26 10:34:50;;;;;;;9.45;4.00;;;;;;;15.89;97.30;101475.88;5032874;28;20116;-80
2022/10/26 10:37:22;;;;;;;9.32;3.97;;;;;;;16.00;97.82;101486.31;5033414;28;20030;-81
2022/10/26 10:39:50;;;;;;;;;;;;;;;16.01;99.07;101491.41;5033445;28;20034;-81
2022/10/26 10:42:20;;;;;;;11.55;5.30;;;;;;;16.13;96.32;101492.28;5033038;28;19912;-82
2022/10/26 10:44:49;;;;;;;12.57;4.77;;;;;;;16.21;96.49;101495.09;5032997;28;20480;-81
2022/10/26 10:47:21;;;;;;;10.10;3.85;;;;;;;16.21;95.69;101483.84;5033227;28;20286;-81
2022/10/26 10:50:02;;;;;;;12.98;4.20;;;;;;;16.37;96.64;101501.75;5032963;28;20108;-81
2022/10/26 10:52:33;;;;;;;10.25;3.90;;;;;;;16.27;95.38;101479.00;5015167;28;20029;-80
2022/10/26 10:55:11;;;;;;;10.77;4.15;;;;;;;16.52;94.99;101511.84;5032894;28;20029;-80
2022/10/26 10:57:55;;;;;;;10.82;3.88;;;;;;;16.64;95.18;101516.13;5033387;28;20025;-79
2022/10/26 11:00:21;;;;;;;10.32;3.65;;;;;;;16.50;94.05;101474.63;5033178;28;20435;-80
2022/10/26 11:03:15;;;;;;;10.93;4.22;;;;;;;16.79;93.67;101516.72;5032975;28;20377;-80
2022/10/26 11:06:05;;;;;;;12.07;4.07;;;;;;;16.86;94.32;101522.28;5032840;28;20112;-79
2022/10/26 11:08:52;;;;;;;10.43;3.90;;;;;;;16.95;93.94;101515.53;5032856;28;20033;-82
2022/10/26 11:11:27;;;;;;;9.98;3.42;;;;;;;17.09;93.22;101508.25;5032890;28;20052;-80
2022/10/26 11:14:03;;;;;;;9.98;4.15;;;;;;;17.31;91.20;101536.09;5032755;28;20491;-79
2022/10/26 11:16:34;;;;;;;8.07;3.97;;;;;;;17.16;90.65;101514.66;5032743;28;20026;-79
2022/10/26 11:19:24;;;;;;;12.52;4.20;;;;;;;17.39;90.75;101541.50;5032541;28;20060;-78
2022/10/26 11:21:53;;;;;;;13.65;4.50;;;;;;;17.29;90.58;101517.09;5032990;28;20354;-79
2022/10/26 11:24:28;;;;;;;8.60;4.60;;;;;;;17.39;89.51;101544.13;5032804;28;20025;-78
2022/10/26 11:26:59;;;;;;;11.57;5.15;;;;;;;17.37;88.89;101538.19;5032876;28;20107;-78
2022/10/26 11:29:41;;;;;;;10.55;5.30;;;;;;;17.39;89.51;101533.69;5032836;28;20053;-78
2022/10/26 11:32:19;;;;;;;10.40;5.60;;;;;;;17.58;88.58;101545.25;5032614;28;20057;-78